メインページ
METAR-TAF:

METAR-TAF

空港 :

Blue River, ブリティッシュコロンビア州, カナダ

緯度: 52-08N, 経度: 119-18W, 海抜: 679m

現時点の気象観測

当レポートは45分前の14:00(UTC)に作成
無風
気温 2°C
湿度 100%
気圧 1012 hPa
視程: 1.6km
高度500ftの千切れ雲あり
高度2600ftの曇り
小雨, 靄

METAR: CYCP 191400Z 00000KT 1SM -RA BR BKN005 OVC026 02/02 A2987 RMK FG5SC2SC1 VIS NE 2 SLP138

時間: 07:45 (14:45 UTC)


TAF: 見つかりません

4,000以上の空港の気象観測と天気予報(METAR報とTAF報)

利用可能な観測所は地図上に黄色い丸と赤い丸で示す。

丸の上にカーソルを重ねると観測所名を参照できる。

次にクリックすると気象観測と天気予報を参照できる。

マップの切り替え:黒色「×」印の緑ボタンをクリックして拡大、「-」印の緑ボタンをクリックして縮小、緑色の三角印をクリックして隣りの地図に切り替え


METAR-TAF: